createdAt,value
2023-01-10T00:00:02.891Z,82.00
2023-01-10T00:01:02.952Z,82.00
2023-01-10T00:02:03.161Z,83.00
2023-01-10T00:03:03.002Z,82.00
2023-01-10T00:04:02.751Z,82.00
2023-01-10T00:05:02.852Z,82.00
2023-01-10T00:06:02.984Z,82.00
2023-01-10T00:07:02.040Z,82.00
2023-01-10T00:08:02.282Z,82.00
2023-01-10T00:09:01.987Z,82.00
2023-01-10T00:10:02.117Z,82.00
2023-01-10T00:11:02.285Z,82.00
2023-01-10T00:12:02.619Z,82.00
2023-01-10T00:13:02.173Z,82.00
2023-01-10T00:14:02.355Z,82.00
2023-01-10T00:15:02.146Z,82.00
2023-01-10T00:16:02.719Z,82.00
2023-01-10T00:17:02.776Z,82.00
2023-01-10T00:18:02.580Z,82.00
2023-01-10T00:19:02.469Z,82.00
2023-01-10T00:20:02.939Z,81.00
2023-01-10T00:21:02.514Z,82.00
2023-01-10T00:22:02.621Z,82.00
2023-01-10T00:23:02.035Z,81.00
2023-01-10T00:24:02.224Z,81.00
2023-01-10T00:25:02.445Z,81.00
2023-01-10T00:26:02.255Z,81.00
2023-01-10T00:27:02.344Z,81.00
2023-01-10T00:28:02.449Z,81.00
2023-01-10T00:29:02.088Z,81.00
2023-01-10T00:30:02.475Z,81.00
2023-01-10T00:31:02.163Z,81.00
2023-01-10T00:32:01.557Z,81.00
2023-01-10T00:33:01.597Z,80.00
2023-01-10T00:34:01.993Z,80.00
2023-01-10T00:35:01.637Z,80.00
2023-01-10T00:36:01.838Z,80.00
2023-01-10T00:37:01.810Z,80.00
2023-01-10T00:38:01.977Z,80.00
2023-01-10T00:39:01.909Z,80.00
2023-01-10T00:40:01.574Z,80.00
2023-01-10T00:41:01.889Z,81.00
2023-01-10T00:42:02.210Z,81.00
2023-01-10T00:43:02.609Z,80.00
2023-01-10T00:44:02.806Z,80.00
2023-01-10T00:45:02.625Z,80.00
2023-01-10T00:46:02.689Z,80.00
2023-01-10T00:47:01.749Z,80.00
2023-01-10T00:48:01.935Z,80.00
2023-01-10T00:49:02.278Z,81.00
2023-01-10T00:50:01.771Z,81.00
2023-01-10T00:51:01.744Z,81.00
2023-01-10T00:52:02.175Z,81.00
2023-01-10T00:53:02.399Z,81.00
2023-01-10T00:54:02.340Z,81.00
2023-01-10T00:55:02.200Z,81.00
2023-01-10T00:56:02.719Z,81.00
2023-01-10T00:57:02.248Z,80.00
2023-01-10T00:58:02.670Z,81.00
2023-01-10T00:59:02.079Z,81.00
2023-01-10T01:00:02.442Z,80.00
2023-01-10T01:01:02.380Z,80.00
2023-01-10T01:02:02.511Z,80.00
2023-01-10T01:03:02.976Z,80.00
2023-01-10T01:04:02.933Z,80.00
2023-01-10T01:05:02.731Z,80.00
2023-01-10T01:06:02.438Z,80.00
2023-01-10T01:07:02.754Z,80.00
2023-01-10T01:08:02.959Z,80.00
2023-01-10T01:09:03.044Z,80.00
2023-01-10T01:10:02.725Z,80.00
2023-01-10T01:11:03.004Z,80.00
2023-01-10T01:12:02.532Z,80.00
2023-01-10T01:13:02.982Z,80.00
2023-01-10T01:14:02.683Z,80.00
2023-01-10T01:15:02.571Z,80.00
2023-01-10T01:16:02.820Z,80.00
2023-01-10T01:17:02.987Z,79.00
2023-01-10T01:18:02.990Z,79.00
2023-01-10T01:19:03.378Z,79.00
2023-01-10T01:20:03.153Z,79.00
2023-01-10T01:21:03.466Z,79.00
2023-01-10T01:22:03.401Z,79.00
2023-01-10T01:23:03.195Z,79.00
2023-01-10T01:24:03.253Z,79.00
2023-01-10T01:25:03.112Z,79.00
2023-01-10T01:26:03.118Z,79.00
2023-01-10T01:27:02.663Z,79.00
2023-01-10T01:28:02.638Z,79.00
2023-01-10T01:29:02.676Z,79.00
2023-01-10T01:30:02.511Z,79.00
2023-01-10T01:31:02.859Z,79.00
2023-01-10T01:32:03.331Z,79.00
2023-01-10T01:33:03.562Z,79.00
2023-01-10T01:34:03.120Z,79.00
2023-01-10T01:35:03.188Z,79.00
2023-01-10T01:36:03.069Z,79.00
2023-01-10T01:37:02.505Z,79.00
2023-01-10T01:38:02.700Z,79.00
2023-01-10T01:39:02.500Z,79.00
2023-01-10T01:40:02.881Z,79.00
2023-01-10T01:41:02.850Z,79.00
2023-01-10T01:42:03.114Z,79.00
2023-01-10T01:43:02.876Z,78.00
2023-01-10T01:44:02.856Z,78.00
2023-01-10T01:45:03.065Z,78.00
2023-01-10T01:46:03.242Z,78.00
2023-01-10T01:47:02.188Z,79.00
2023-01-10T01:48:02.717Z,78.00
2023-01-10T01:49:02.617Z,78.00
2023-01-10T01:50:02.381Z,78.00
2023-01-10T01:51:02.701Z,78.00
2023-01-10T01:52:02.662Z,78.00
2023-01-10T01:53:02.284Z,78.00
2023-01-10T01:54:02.288Z,78.00
2023-01-10T01:55:02.747Z,78.00
2023-01-10T01:56:02.217Z,78.00
2023-01-10T01:57:02.915Z,78.00
2023-01-10T01:58:02.823Z,78.00
2023-01-10T01:59:02.805Z,78.00
2023-01-10T02:00:02.689Z,78.00
2023-01-10T02:01:02.616Z,78.00
2023-01-10T02:02:01.761Z,78.00
2023-01-10T02:03:03.156Z,78.00
2023-01-10T02:04:01.738Z,78.00
2023-01-10T02:05:01.704Z,78.00
2023-01-10T02:06:01.969Z,77.00
2023-01-10T02:07:02.681Z,77.00
2023-01-10T02:08:02.502Z,77.00
2023-01-10T02:09:02.103Z,77.00
2023-01-10T02:10:02.245Z,77.00
2023-01-10T02:11:02.622Z,77.00
2023-01-10T02:12:02.988Z,77.00
2023-01-10T02:13:02.540Z,77.00
2023-01-10T02:14:02.544Z,77.00
2023-01-10T02:15:02.659Z,77.00
2023-01-10T02:16:02.905Z,77.00
2023-01-10T02:17:02.340Z,77.00
2023-01-10T02:18:01.978Z,78.00
2023-01-10T02:19:02.257Z,77.00
2023-01-10T02:20:02.277Z,77.00
2023-01-10T02:21:01.845Z,77.00
2023-01-10T02:22:02.117Z,77.00
2023-01-10T02:23:02.442Z,77.00
2023-01-10T02:24:02.293Z,77.00
2023-01-10T02:25:02.012Z,77.00
2023-01-10T02:26:01.870Z,77.00
2023-01-10T02:27:01.853Z,77.00
2023-01-10T02:28:01.709Z,77.00
2023-01-10T02:29:01.940Z,77.00
2023-01-10T02:30:01.968Z,76.00
2023-01-10T02:31:01.609Z,77.00
2023-01-10T02:32:01.802Z,77.00
2023-01-10T02:33:05.427Z,77.00
2023-01-10T02:34:02.323Z,77.00
2023-01-10T02:35:01.994Z,77.00
2023-01-10T02:36:01.915Z,77.00
2023-01-10T02:37:01.963Z,77.00
2023-01-10T02:38:02.113Z,77.00
2023-01-10T02:39:01.574Z,77.00
2023-01-10T02:40:01.945Z,77.00
2023-01-10T02:41:01.495Z,78.00
2023-01-10T02:42:02.630Z,78.00
2023-01-10T02:43:02.366Z,77.00
2023-01-10T02:44:02.710Z,77.00
2023-01-10T02:45:02.304Z,77.00
2023-01-10T02:46:02.105Z,77.00
2023-01-10T02:47:01.751Z,77.00
2023-01-10T02:48:02.073Z,77.00
2023-01-10T02:49:02.050Z,76.00
2023-01-10T02:50:02.008Z,76.00
2023-01-10T02:51:02.135Z,77.00
2023-01-10T02:52:02.620Z,77.00
2023-01-10T02:53:02.369Z,77.00
2023-01-10T02:54:02.159Z,77.00
2023-01-10T02:55:02.016Z,77.00
2023-01-10T02:56:02.524Z,77.00
2023-01-10T02:57:02.392Z,77.00
2023-01-10T02:58:02.815Z,77.00
2023-01-10T02:59:02.323Z,76.00
2023-01-10T03:00:02.297Z,76.00
2023-01-10T03:01:02.921Z,77.00
2023-01-10T03:02:03.053Z,77.00
2023-01-10T03:03:02.378Z,77.00
2023-01-10T03:04:02.905Z,77.00
2023-01-10T03:05:02.745Z,77.00
2023-01-10T03:06:02.619Z,77.00
2023-01-10T03:07:03.104Z,77.00
2023-01-10T03:08:03.427Z,77.00
2023-01-10T03:09:03.504Z,77.00
2023-01-10T03:10:03.492Z,77.00
2023-01-10T03:11:03.564Z,77.00
2023-01-10T03:12:03.116Z,77.00
2023-01-10T03:13:02.731Z,77.00
2023-01-10T03:14:03.080Z,77.00
2023-01-10T03:15:02.513Z,76.00
2023-01-10T03:16:03.010Z,77.00
2023-01-10T03:17:04.761Z,77.00
2023-01-10T03:18:02.930Z,77.00
2023-01-10T03:19:03.320Z,77.00
2023-01-10T03:20:03.157Z,76.00
2023-01-10T03:21:02.792Z,76.00
2023-01-10T03:22:02.674Z,76.00
2023-01-10T03:23:02.576Z,76.00
2023-01-10T03:24:02.850Z,76.00
2023-01-10T03:25:02.693Z,76.00
2023-01-10T03:26:02.326Z,76.00
2023-01-10T03:27:03.159Z,76.00
2023-01-10T03:28:02.762Z,76.00
2023-01-10T03:29:02.977Z,76.00
2023-01-10T03:30:02.747Z,76.00
2023-01-10T03:31:03.267Z,76.00
2023-01-10T03:32:02.865Z,76.00
2023-01-10T03:33:03.226Z,76.00
2023-01-10T03:34:02.877Z,76.00
2023-01-10T03:35:03.237Z,76.00
2023-01-10T03:36:03.355Z,76.00
2023-01-10T03:37:02.795Z,76.00
2023-01-10T03:38:02.982Z,76.00
2023-01-10T03:39:02.484Z,76.00
2023-01-10T03:40:02.955Z,76.00
2023-01-10T03:41:02.714Z,76.00
2023-01-10T03:42:02.901Z,76.00
2023-01-10T03:43:03.215Z,76.00
2023-01-10T03:44:03.089Z,76.00
2023-01-10T03:45:03.186Z,76.00
2023-01-10T03:46:03.402Z,76.00
2023-01-10T03:47:03.483Z,76.00
2023-01-10T03:48:02.957Z,76.00
2023-01-10T03:49:03.284Z,76.00
2023-01-10T03:50:02.956Z,76.00
2023-01-10T03:51:03.474Z,76.00
2023-01-10T03:52:02.523Z,76.00
2023-01-10T03:53:02.757Z,76.00
2023-01-10T03:54:02.545Z,75.00
2023-01-10T03:55:02.419Z,75.00
2023-01-10T03:56:02.363Z,75.00
2023-01-10T03:57:03.010Z,75.00
2023-01-10T03:58:02.645Z,76.00
2023-01-10T03:59:03.069Z,75.00
2023-01-10T04:00:02.939Z,75.00
2023-01-10T04:01:02.910Z,75.00
2023-01-10T04:02:02.533Z,75.00
2023-01-10T04:03:02.137Z,75.00
2023-01-10T04:04:02.480Z,74.00
2023-01-10T04:05:02.234Z,74.00
2023-01-10T04:06:02.207Z,74.00
2023-01-10T04:07:02.629Z,74.00
2023-01-10T04:08:02.790Z,74.00
2023-01-10T04:09:02.859Z,74.00
2023-01-10T04:10:02.598Z,74.00
2023-01-10T04:11:02.750Z,73.00
2023-01-10T04:12:03.046Z,74.00
2023-01-10T04:13:02.468Z,73.00
2023-01-10T04:14:02.885Z,73.00
2023-01-10T04:15:03.171Z,74.00
2023-01-10T04:16:02.830Z,74.00
2023-01-10T04:17:02.489Z,74.00
2023-01-10T04:18:02.373Z,74.00
2023-01-10T04:19:02.324Z,74.00
2023-01-10T04:20:02.232Z,74.00
2023-01-10T04:21:02.156Z,74.00
2023-01-10T04:22:02.413Z,74.00
2023-01-10T04:23:02.271Z,74.00
2023-01-10T04:24:02.283Z,74.00
2023-01-10T04:25:02.291Z,74.00
2023-01-10T04:26:02.549Z,74.00
2023-01-10T04:27:02.659Z,74.00
2023-01-10T04:28:02.627Z,74.00
2023-01-10T04:29:02.423Z,74.00
2023-01-10T04:30:02.359Z,74.00
2023-01-10T04:31:02.666Z,73.00
2023-01-10T04:32:02.350Z,73.00
2023-01-10T04:33:02.304Z,73.00
2023-01-10T04:34:01.821Z,73.00
2023-01-10T04:35:01.785Z,73.00
2023-01-10T04:36:02.177Z,73.00
2023-01-10T04:37:02.189Z,73.00
2023-01-10T04:38:02.556Z,73.00
2023-01-10T04:39:02.421Z,73.00
2023-01-10T04:40:02.224Z,73.00
2023-01-10T04:41:02.092Z,73.00
2023-01-10T04:42:02.583Z,73.00
2023-01-10T04:43:02.652Z,73.00
2023-01-10T04:44:02.531Z,73.00
2023-01-10T04:45:02.646Z,73.00
2023-01-10T04:46:02.535Z,73.00
2023-01-10T04:47:02.271Z,73.00
2023-01-10T04:48:02.347Z,73.00
2023-01-10T04:49:02.567Z,73.00
2023-01-10T04:50:02.022Z,73.00
2023-01-10T04:51:02.320Z,73.00
2023-01-10T04:52:02.253Z,73.00
2023-01-10T04:53:02.629Z,73.00
2023-01-10T04:54:02.274Z,73.00
2023-01-10T04:55:02.821Z,73.00
2023-01-10T04:56:02.182Z,73.00
2023-01-10T04:57:02.867Z,73.00
2023-01-10T04:58:02.758Z,73.00
2023-01-10T04:59:02.746Z,74.00
2023-01-10T05:00:02.488Z,74.00
2023-01-10T05:01:02.438Z,74.00
2023-01-10T05:02:03.332Z,74.00
2023-01-10T05:03:02.862Z,74.00
2023-01-10T05:04:02.969Z,74.00
2023-01-10T05:05:02.712Z,73.00
2023-01-10T05:06:03.051Z,73.00
2023-01-10T05:07:02.634Z,74.00
2023-01-10T05:08:02.833Z,73.00
2023-01-10T05:09:02.758Z,74.00
2023-01-10T05:10:02.522Z,73.00
2023-01-10T05:11:02.489Z,73.00
2023-01-10T05:12:02.963Z,73.00
2023-01-10T05:13:02.909Z,73.00
2023-01-10T05:14:02.742Z,73.00
2023-01-10T05:15:02.721Z,74.00
2023-01-10T05:16:02.926Z,74.00
2023-01-10T05:17:03.146Z,73.00
2023-01-10T05:18:03.015Z,73.00
2023-01-10T05:19:02.826Z,74.00
2023-01-10T05:20:03.400Z,74.00
2023-01-10T05:21:03.305Z,74.00
2023-01-10T05:22:03.732Z,74.00
2023-01-10T05:23:03.411Z,74.00
2023-01-10T05:24:03.351Z,74.00
2023-01-10T05:25:03.907Z,74.00
2023-01-10T05:26:03.436Z,74.00
2023-01-10T05:27:03.147Z,74.00
2023-01-10T05:28:02.998Z,74.00
2023-01-10T05:29:02.956Z,74.00
2023-01-10T05:30:03.332Z,74.00
2023-01-10T05:31:02.776Z,74.00
2023-01-10T05:32:03.130Z,74.00
2023-01-10T05:33:02.823Z,75.00
2023-01-10T05:34:02.509Z,75.00
2023-01-10T05:35:02.584Z,75.00
2023-01-10T05:36:02.759Z,75.00
2023-01-10T05:37:02.777Z,75.00
2023-01-10T05:38:02.707Z,75.00
2023-01-10T05:39:02.700Z,75.00
2023-01-10T05:40:02.730Z,75.00
2023-01-10T05:41:02.861Z,75.00
2023-01-10T05:42:02.998Z,75.00
2023-01-10T05:43:03.045Z,75.00
2023-01-10T05:44:03.297Z,75.00
2023-01-10T05:45:02.894Z,75.00
2023-01-10T05:46:03.193Z,75.00
2023-01-10T05:47:02.163Z,75.00
2023-01-10T05:48:02.349Z,75.00
2023-01-10T05:49:02.573Z,75.00
2023-01-10T05:50:02.304Z,75.00
2023-01-10T05:51:02.287Z,75.00
2023-01-10T05:52:03.364Z,75.00
2023-01-10T05:53:03.422Z,75.00
2023-01-10T05:54:02.892Z,75.00
2023-01-10T05:55:03.325Z,75.00
2023-01-10T05:56:03.111Z,75.00
2023-01-10T05:57:02.695Z,74.00
2023-01-10T05:58:02.371Z,74.00
2023-01-10T05:59:14.005Z,75.00
2023-01-10T06:00:04.944Z,75.00
2023-01-10T06:01:02.443Z,75.00
2023-01-10T06:02:03.105Z,75.00
2023-01-10T06:03:03.261Z,75.00
2023-01-10T06:04:02.654Z,75.00
2023-01-10T06:05:02.735Z,75.00
2023-01-10T06:06:03.077Z,76.00
2023-01-10T06:07:02.435Z,76.00
2023-01-10T06:08:02.207Z,76.00
2023-01-10T06:09:02.371Z,76.00
2023-01-10T06:10:02.379Z,76.00
2023-01-10T06:11:02.340Z,76.00
2023-01-10T06:12:02.565Z,76.00
2023-01-10T06:13:02.683Z,75.00
2023-01-10T06:14:02.612Z,76.00
2023-01-10T06:15:03.044Z,75.00
2023-01-10T06:16:02.607Z,75.00
2023-01-10T06:17:02.202Z,75.00
2023-01-10T06:18:02.496Z,75.00
2023-01-10T06:19:02.595Z,75.00
2023-01-10T06:20:02.577Z,76.00
2023-01-10T06:21:02.519Z,76.00
2023-01-10T06:22:02.659Z,76.00
2023-01-10T06:23:02.375Z,76.00
2023-01-10T06:24:02.700Z,77.00
2023-01-10T06:25:02.718Z,76.00
2023-01-10T06:26:02.894Z,76.00
2023-01-10T06:27:02.515Z,76.00
2023-01-10T06:28:02.088Z,76.00
2023-01-10T06:29:02.009Z,76.00
2023-01-10T06:30:02.065Z,76.00
2023-01-10T06:31:02.340Z,76.00
2023-01-10T06:32:02.197Z,76.00
2023-01-10T06:33:02.425Z,76.00
2023-01-10T06:34:02.252Z,76.00
2023-01-10T06:35:02.184Z,76.00
2023-01-10T06:36:02.333Z,76.00
2023-01-10T06:37:03.020Z,76.00
2023-01-10T06:38:02.452Z,77.00
2023-01-10T06:39:02.969Z,77.00
2023-01-10T06:40:02.477Z,76.00
2023-01-10T06:41:02.693Z,76.00
2023-01-10T06:42:02.251Z,76.00
2023-01-10T06:43:02.331Z,76.00
2023-01-10T06:44:02.026Z,76.00
2023-01-10T06:45:02.202Z,76.00
2023-01-10T06:46:02.130Z,76.00
2023-01-10T06:47:02.336Z,76.00
2023-01-10T06:48:01.813Z,76.00
2023-01-10T06:49:01.947Z,76.00
2023-01-10T06:50:02.356Z,76.00
2023-01-10T06:51:01.979Z,76.00
2023-01-10T06:52:02.069Z,76.00
2023-01-10T06:53:01.902Z,76.00
2023-01-10T06:54:02.075Z,76.00
2023-01-10T06:55:01.956Z,76.00
2023-01-10T06:56:02.555Z,76.00
2023-01-10T06:57:02.163Z,76.00
2023-01-10T06:58:01.995Z,76.00
2023-01-10T06:59:02.001Z,76.00
2023-01-10T07:00:02.265Z,76.00
2023-01-10T07:01:02.156Z,76.00
2023-01-10T07:02:02.422Z,76.00
2023-01-10T07:03:02.886Z,76.00
2023-01-10T07:04:02.473Z,76.00
2023-01-10T07:05:02.868Z,76.00
2023-01-10T07:06:02.332Z,76.00
2023-01-10T07:07:03.405Z,76.00
2023-01-10T07:08:02.989Z,76.00
2023-01-10T07:09:03.545Z,76.00
2023-01-10T07:10:03.079Z,76.00
2023-01-10T07:11:03.921Z,76.00
2023-01-10T07:12:02.498Z,76.00
2023-01-10T07:13:02.409Z,76.00
2023-01-10T07:14:02.372Z,76.00
2023-01-10T07:15:02.492Z,76.00
2023-01-10T07:16:02.743Z,76.00
2023-01-10T07:17:03.267Z,76.00
2023-01-10T07:18:03.228Z,76.00
2023-01-10T07:19:02.780Z,76.00
2023-01-10T07:20:03.102Z,76.00
2023-01-10T07:21:03.207Z,76.00
2023-01-10T07:22:02.905Z,76.00
2023-01-10T07:23:03.351Z,76.00
2023-01-10T07:24:03.234Z,76.00
2023-01-10T07:25:02.785Z,76.00
2023-01-10T07:26:02.892Z,76.00
2023-01-10T07:27:02.565Z,76.00
2023-01-10T07:28:02.413Z,75.00
2023-01-10T07:29:02.624Z,75.00
2023-01-10T07:30:02.391Z,75.00
2023-01-10T07:31:02.575Z,75.00
2023-01-10T07:32:03.395Z,75.00
2023-01-10T07:33:03.120Z,75.00
2023-01-10T07:34:03.329Z,75.00
2023-01-10T07:35:02.931Z,76.00
2023-01-10T07:36:03.412Z,76.00
2023-01-10T07:37:02.416Z,76.00
2023-01-10T07:38:02.703Z,76.00
2023-01-10T07:39:02.690Z,76.00
2023-01-10T07:40:02.435Z,76.00
2023-01-10T07:41:02.465Z,76.00
2023-01-10T07:42:02.831Z,76.00
2023-01-10T07:43:03.220Z,75.00
2023-01-10T07:44:03.195Z,75.00
2023-01-10T07:45:02.840Z,75.00
2023-01-10T07:46:03.093Z,75.00
2023-01-10T07:47:03.290Z,75.00
2023-01-10T07:48:02.792Z,75.00
2023-01-10T07:49:03.058Z,75.00
2023-01-10T07:50:02.778Z,75.00
2023-01-10T07:51:03.225Z,75.00
2023-01-10T07:52:02.625Z,75.00
2023-01-10T07:53:02.671Z,76.00
2023-01-10T07:54:02.484Z,75.00
2023-01-10T07:55:02.405Z,75.00
2023-01-10T07:56:02.291Z,75.00
2023-01-10T07:57:02.997Z,75.00
2023-01-10T07:58:02.597Z,75.00
2023-01-10T07:59:03.009Z,75.00
2023-01-10T08:00:02.677Z,75.00
2023-01-10T08:01:02.845Z,75.00
2023-01-10T08:02:02.271Z,75.00
2023-01-10T08:03:02.272Z,75.00
2023-01-10T08:04:02.151Z,75.00
2023-01-10T08:05:01.820Z,75.00
2023-01-10T08:06:02.024Z,75.00
2023-01-10T08:07:02.356Z,75.00
2023-01-10T08:08:02.263Z,75.00
2023-01-10T08:09:02.305Z,75.00
2023-01-10T08:10:02.698Z,75.00
2023-01-10T08:11:02.240Z,75.00
2023-01-10T08:12:02.151Z,75.00
2023-01-10T08:13:16.978Z,75.00
2023-01-10T08:14:01.903Z,75.00
2023-01-10T08:15:02.054Z,76.00
2023-01-10T08:16:01.814Z,76.00
2023-01-10T08:17:02.266Z,76.00
2023-01-10T08:18:04.161Z,76.00
2023-01-10T08:19:01.979Z,76.00
2023-01-10T08:20:01.783Z,76.00
2023-01-10T08:21:01.653Z,76.00
2023-01-10T08:22:01.787Z,76.00
2023-01-10T08:23:02.087Z,76.00
2023-01-10T08:24:02.063Z,76.00
2023-01-10T08:25:01.947Z,76.00
2023-01-10T08:26:01.993Z,76.00
2023-01-10T08:27:02.571Z,76.00
2023-01-10T08:28:01.897Z,76.00
2023-01-10T08:29:01.982Z,76.00
2023-01-10T08:30:02.179Z,76.00
2023-01-10T08:31:01.981Z,76.00
2023-01-10T08:32:02.082Z,76.00
2023-01-10T08:33:01.698Z,75.00
2023-01-10T08:34:01.699Z,75.00
2023-01-10T08:35:01.464Z,75.00
2023-01-10T08:36:02.005Z,75.00
2023-01-10T08:37:01.935Z,75.00
2023-01-10T08:38:02.392Z,75.00
2023-01-10T08:39:01.953Z,75.00
2023-01-10T08:40:02.281Z,75.00
2023-01-10T08:41:01.893Z,75.00
2023-01-10T08:42:01.487Z,75.00
2023-01-10T08:43:01.992Z,75.00
2023-01-10T08:44:01.927Z,75.00
2023-01-10T08:45:01.908Z,75.00
2023-01-10T08:46:02.082Z,75.00
2023-01-10T08:47:01.599Z,75.00
2023-01-10T08:48:01.881Z,76.00
2023-01-10T08:49:01.686Z,76.00
2023-01-10T08:50:02.021Z,75.00
2023-01-10T08:51:02.022Z,75.00
2023-01-10T08:52:02.369Z,75.00
2023-01-10T08:53:02.110Z,75.00
2023-01-10T08:54:01.828Z,76.00
2023-01-10T08:55:02.151Z,76.00
2023-01-10T08:56:03.205Z,76.00
2023-01-10T08:57:01.976Z,76.00
2023-01-10T08:58:02.231Z,76.00
2023-01-10T08:59:02.585Z,75.00
2023-01-10T09:00:02.477Z,75.00
2023-01-10T09:01:02.294Z,75.00
2023-01-10T09:02:03.098Z,75.00
2023-01-10T09:03:03.035Z,75.00
2023-01-10T09:04:02.936Z,75.00
2023-01-10T09:05:04.882Z,75.00
2023-01-10T09:06:03.400Z,75.00
2023-01-10T09:07:02.498Z,75.00
2023-01-10T09:08:02.556Z,75.00
2023-01-10T09:09:02.965Z,75.00
2023-01-10T09:10:03.006Z,75.00
2023-01-10T09:11:02.458Z,75.00
2023-01-10T09:12:02.926Z,75.00
2023-01-10T09:13:02.667Z,75.00
2023-01-10T09:14:03.097Z,75.00
2023-01-10T09:15:02.763Z,75.00
2023-01-10T09:16:03.180Z,75.00
2023-01-10T09:17:02.976Z,75.00
2023-01-10T09:18:02.635Z,75.00
2023-01-10T09:19:02.948Z,75.00
2023-01-10T09:20:02.917Z,75.00
2023-01-10T09:21:02.773Z,75.00
2023-01-10T09:22:02.738Z,75.00
2023-01-10T09:23:03.120Z,74.00
2023-01-10T09:24:02.763Z,74.00
2023-01-10T09:25:03.282Z,74.00
2023-01-10T09:26:03.070Z,74.00
2023-01-10T09:27:03.132Z,74.00
2023-01-10T09:28:03.668Z,74.00
2023-01-10T09:29:03.627Z,74.00
2023-01-10T09:30:03.703Z,74.00
2023-01-10T09:31:03.201Z,74.00
2023-01-10T09:32:02.359Z,75.00
2023-01-10T09:33:02.354Z,74.00
2023-01-10T09:34:02.910Z,74.00
2023-01-10T09:35:02.766Z,74.00
2023-01-10T09:36:02.692Z,74.00
2023-01-10T09:37:03.065Z,73.00
2023-01-10T09:38:02.790Z,73.00
2023-01-10T09:39:02.659Z,74.00
2023-01-10T09:40:02.840Z,74.00
2023-01-10T09:41:02.677Z,74.00
2023-01-10T09:42:02.171Z,74.00
2023-01-10T09:43:02.635Z,74.00
2023-01-10T09:44:02.752Z,73.00
2023-01-10T09:45:02.674Z,72.00
2023-01-10T09:46:02.181Z,72.00
2023-01-10T09:47:06.203Z,72.00
2023-01-10T09:48:02.448Z,73.00
2023-01-10T09:49:02.728Z,73.00
2023-01-10T09:50:02.362Z,73.00
2023-01-10T09:51:02.589Z,72.00
2023-01-10T09:52:03.148Z,72.00
2023-01-10T09:53:02.945Z,72.00
2023-01-10T09:54:11.287Z,72.00
2023-01-10T09:55:03.798Z,72.00
2023-01-10T09:56:03.158Z,72.00
2023-01-10T09:57:02.391Z,72.00
2023-01-10T09:58:02.199Z,71.00
2023-01-10T09:59:02.637Z,72.00
2023-01-10T10:00:02.662Z,71.00
2023-01-10T10:01:02.779Z,71.00
2023-01-10T10:02:02.427Z,71.00
2023-01-10T10:03:02.145Z,71.00
2023-01-10T10:04:02.239Z,71.00
2023-01-10T10:05:02.230Z,70.00
2023-01-10T10:06:11.700Z,69.00
2023-01-10T10:07:02.920Z,69.00
2023-01-10T10:08:02.619Z,68.00
2023-01-10T10:09:04.866Z,68.00
2023-01-10T10:10:02.937Z,67.00
2023-01-10T10:11:02.926Z,67.00
2023-01-10T10:12:02.402Z,68.00
2023-01-10T10:13:02.272Z,68.00
2023-01-10T10:14:02.203Z,68.00
2023-01-10T10:15:02.530Z,68.00
2023-01-10T10:16:02.301Z,68.00
2023-01-10T10:17:01.875Z,68.00
2023-01-10T10:18:02.143Z,67.00
2023-01-10T10:19:02.115Z,67.00
2023-01-10T10:20:01.704Z,66.00
2023-01-10T10:21:01.829Z,67.00
2023-01-10T10:22:02.640Z,67.00
2023-01-10T10:23:02.463Z,67.00
2023-01-10T10:24:02.136Z,67.00
2023-01-10T10:25:02.153Z,67.00
2023-01-10T10:26:02.653Z,66.00
2023-01-10T10:27:02.706Z,66.00
2023-01-10T10:28:02.330Z,66.00
2023-01-10T10:29:02.782Z,66.00
2023-01-10T10:30:02.548Z,66.00
2023-01-10T10:31:02.926Z,66.00
2023-01-10T10:32:02.726Z,66.00
2023-01-10T10:33:02.656Z,65.00
2023-01-10T10:34:02.453Z,63.00
2023-01-10T10:35:02.715Z,64.00
2023-01-10T10:36:02.652Z,64.00
2023-01-10T10:37:01.728Z,64.00
2023-01-10T10:38:01.441Z,64.00
2023-01-10T10:39:01.728Z,65.00
2023-01-10T10:40:01.796Z,65.00
2023-01-10T10:41:01.497Z,65.00
2023-01-10T10:42:02.430Z,64.00
2023-01-10T10:43:02.277Z,64.00
2023-01-10T10:44:02.440Z,63.00
2023-01-10T10:45:02.210Z,63.00
2023-01-10T10:46:02.502Z,62.00
2023-01-10T10:47:02.700Z,63.00
2023-01-10T10:48:02.891Z,63.00
2023-01-10T10:49:02.351Z,63.00
2023-01-10T10:50:02.264Z,62.00
2023-01-10T10:51:02.699Z,61.00
2023-01-10T10:52:02.258Z,62.00
2023-01-10T10:53:02.296Z,63.00
2023-01-10T10:54:01.756Z,62.00
2023-01-10T10:55:01.814Z,62.00
2023-01-10T10:56:02.313Z,62.00
2023-01-10T10:57:02.775Z,62.00
2023-01-10T10:58:02.403Z,62.00
2023-01-10T10:59:02.527Z,62.00
2023-01-10T11:00:02.282Z,63.00
2023-01-10T11:01:02.542Z,63.00
2023-01-10T11:02:03.366Z,62.00
2023-01-10T11:03:02.905Z,63.00
2023-01-10T11:04:03.415Z,63.00
2023-01-10T11:05:03.023Z,63.00
2023-01-10T11:06:03.279Z,63.00
2023-01-10T11:07:03.059Z,63.00
2023-01-10T11:08:03.127Z,63.00
2023-01-10T11:09:03.523Z,63.00
2023-01-10T11:10:03.534Z,63.00
2023-01-10T11:11:03.135Z,62.00
2023-01-10T11:12:02.725Z,62.00
2023-01-10T11:13:02.794Z,62.00
2023-01-10T11:14:02.411Z,62.00
2023-01-10T11:15:02.263Z,62.00
2023-01-10T11:16:02.793Z,62.00
2023-01-10T11:17:02.797Z,62.00
2023-01-10T11:18:02.781Z,62.00
2023-01-10T11:19:03.394Z,62.00
2023-01-10T11:20:02.925Z,61.00
2023-01-10T11:21:02.986Z,61.00
2023-01-10T11:22:03.392Z,61.00
2023-01-10T11:23:03.125Z,62.00
2023-01-10T11:24:02.980Z,61.00
2023-01-10T11:25:03.150Z,61.00
2023-01-10T11:26:03.384Z,61.00
2023-01-10T11:27:03.102Z,62.00
2023-01-10T11:28:03.119Z,62.00
2023-01-10T11:29:02.645Z,62.00
2023-01-10T11:30:02.664Z,63.00
2023-01-10T11:31:03.039Z,61.00
2023-01-10T11:32:03.515Z,62.00
2023-01-10T11:33:03.445Z,62.00
2023-01-10T11:34:03.215Z,63.00
2023-01-10T11:35:03.530Z,62.00
2023-01-10T11:36:03.436Z,62.00
2023-01-10T11:37:02.044Z,62.00
2023-01-10T11:38:02.362Z,63.00
2023-01-10T11:39:02.485Z,62.00
2023-01-10T11:40:02.061Z,62.00
2023-01-10T11:41:02.688Z,62.00
2023-01-10T11:42:02.724Z,63.00
2023-01-10T11:43:03.289Z,63.00
2023-01-10T11:44:02.789Z,62.00
2023-01-10T11:45:03.383Z,61.00
2023-01-10T11:46:03.258Z,62.00
2023-01-10T11:47:03.234Z,62.00
2023-01-10T11:48:02.358Z,62.00
2023-01-10T11:49:07.831Z,63.00
2023-01-10T11:50:02.287Z,63.00
2023-01-10T11:51:02.633Z,62.00
2023-01-10T11:52:02.571Z,62.00
2023-01-10T11:53:03.040Z,62.00
2023-01-10T11:54:03.022Z,62.00
2023-01-10T11:55:03.084Z,63.00
2023-01-10T11:56:02.762Z,63.00
2023-01-10T11:57:03.370Z,63.00
2023-01-10T11:58:02.885Z,62.00
2023-01-10T11:59:03.097Z,62.00
2023-01-10T12:00:02.719Z,63.00
2023-01-10T12:01:02.676Z,63.00
2023-01-10T12:02:02.633Z,63.00
2023-01-10T12:03:02.682Z,62.00
2023-01-10T12:04:02.167Z,62.00
2023-01-10T12:05:02.675Z,62.00
2023-01-10T12:06:02.082Z,62.00
2023-01-10T12:07:02.628Z,62.00
2023-01-10T12:08:02.257Z,62.00
2023-01-10T12:09:02.711Z,62.00
2023-01-10T12:10:02.298Z,63.00
2023-01-10T12:11:02.790Z,62.00
2023-01-10T12:12:02.695Z,62.00
2023-01-10T12:13:02.651Z,62.00
2023-01-10T12:14:02.510Z,62.00
2023-01-10T12:15:02.779Z,62.00
2023-01-10T12:16:02.980Z,62.00
2023-01-10T12:17:03.047Z,62.00
2023-01-10T12:18:01.942Z,62.00
2023-01-10T12:19:02.107Z,61.00
2023-01-10T12:20:01.529Z,61.00
2023-01-10T12:21:01.578Z,61.00
2023-01-10T12:22:01.893Z,62.00
2023-01-10T12:23:02.139Z,62.00
2023-01-10T12:24:02.092Z,61.00
2023-01-10T12:25:01.724Z,62.00
2023-01-10T12:26:11.520Z,62.00
2023-01-10T12:27:01.978Z,62.00
2023-01-10T12:28:01.915Z,62.00
2023-01-10T12:29:02.391Z,62.00
2023-01-10T12:30:01.944Z,62.00
2023-01-10T12:31:02.423Z,63.00
2023-01-10T12:32:02.098Z,63.00
2023-01-10T12:33:02.943Z,62.00
2023-01-10T12:34:02.423Z,62.00
2023-01-10T12:35:02.670Z,62.00
2023-01-10T12:36:03.000Z,62.00
2023-01-10T12:37:02.799Z,62.00
2023-01-10T12:38:02.432Z,62.00
2023-01-10T12:39:02.853Z,62.00
2023-01-10T12:40:02.871Z,62.00
2023-01-10T12:41:02.534Z,62.00
2023-01-10T12:42:02.548Z,62.00
2023-01-10T12:43:01.833Z,62.00
2023-01-10T12:44:02.089Z,62.00
2023-01-10T12:45:02.119Z,62.00
2023-01-10T12:46:09.749Z,62.00
2023-01-10T12:47:08.085Z,62.00
2023-01-10T12:48:02.702Z,62.00
2023-01-10T12:49:02.782Z,62.00
2023-01-10T12:50:02.346Z,62.00
2023-01-10T12:51:02.115Z,63.00
2023-01-10T12:52:02.549Z,63.00